Sibi Weather



Sibi's Current Weather

Temprature 19.774o clear sky

clear sky

Rain: 0 %

Min Temprature19.774o
Max Temprature19.774o
Humidity63
Wind Speed1.76 m/h
Sun Rise07:00:28
Sun Set18:23:35
Current Time: 23-Feb-2019 16:04:38
Lat/Lon: 29.55, 67.88




Sibi's Geo Location




Sibi's Weather Forecast

Time Overall Temp Min Temp Max Temp Humidity Wind Speed Rain
23-Feb-2019 (Sat)
17:00:00 clear sky 19.860 19.774 19.860 63 1.76 m/h 0 %
20:00:00 clear sky 14.470 14.409 14.470 73 0.97 m/h 0 %
23:00:00 clear sky 11.530 11.490 11.530 77 1.57 m/h 0 %
24-Feb-2019 (Sun)
02:00:00 scattered clouds 10.160 10.135 10.160 78 1.31 m/h 0 %
05:00:00 clear sky 9.317 9.317 9.317 69 1.76 m/h 0 %
08:00:00 clear sky 8.728 8.728 8.728 67 2.06 m/h 0 %
11:00:00 broken clouds 15.624 15.624 15.624 72 1.86 m/h 0 %
14:00:00 broken clouds 17.631 17.631 17.631 72 1.37 m/h 0 %
17:00:00 few clouds 18.896 18.896 18.896 70 1.2 m/h 0 %
20:00:00 clear sky 13.343 13.343 13.343 73 1.26 m/h 0 %
23:00:00 clear sky 11.311 11.311 11.311 58 3.31 m/h 0 %
25-Feb-2019 (Mon)
02:00:00 broken clouds 10.380 10.380 10.380 60 3.02 m/h 0 %
05:00:00 few clouds 10.577 10.577 10.577 62 2.91 m/h 0 %
08:00:00 clear sky 9.245 9.245 9.245 64 2.32 m/h 0 %
11:00:00 clear sky 15.872 15.872 15.872 71 2.41 m/h 0 %
14:00:00 scattered clouds 19.323 19.323 19.323 72 1.72 m/h 0 %
17:00:00 few clouds 19.037 19.037 19.037 63 1.31 m/h 0 %
20:00:00 few clouds 13.523 13.523 13.523 71 1.31 m/h 0 %
23:00:00 scattered clouds 10.667 10.667 10.667 60 1.31 m/h 0 %
26-Feb-2019 (Tue)
02:00:00 clear sky 9.951 9.951 9.951 62 3.16 m/h 0 %
05:00:00 clear sky 8.672 8.672 8.672 59 2.76 m/h 0 %
08:00:00 clear sky 8.057 8.057 8.057 62 1.77 m/h 0 %
11:00:00 clear sky 15.142 15.142 15.142 75 1.97 m/h 0 %
14:00:00 clear sky 18.246 18.246 18.246 75 1.76 m/h 0 %
17:00:00 clear sky 18.164 18.164 18.164 62 2.06 m/h 0 %
20:00:00 clear sky 12.661 12.661 12.661 58 2.22 m/h 0 %
23:00:00 clear sky 10.148 10.148 10.148 57 3.67 m/h 0 %
27-Feb-2019 (Wed)
02:00:00 clear sky 8.681 8.681 8.681 58 3.36 m/h 0 %
05:00:00 clear sky 7.194 7.194 7.194 59 2.45 m/h 0 %
08:00:00 clear sky 6.365 6.365 6.365 63 2.17 m/h 0 %
11:00:00 clear sky 13.770 13.770 13.770 77 1.91 m/h 0 %
14:00:00 clear sky 17.511 17.511 17.511 74 1.4 m/h 0 %
17:00:00 broken clouds 17.523 17.523 17.523 59 1.16 m/h 0 %
20:00:00 clear sky 12.167 12.167 12.167 57 0.97 m/h 0 %
23:00:00 broken clouds 10.816 10.816 10.816 56 1.32 m/h 0 %
28-Feb-2019 (Thu)
02:00:00 scattered clouds 10.266 10.266 10.266 63 2.61 m/h 0 %
05:00:00 light rain 10.363 10.363 10.363 69 2.31 m/h 8 %
08:00:00 light rain 10.540 10.540 10.540 81 2.51 m/h 52 %
11:00:00 light rain 12.597 12.597 12.597 86 2.31 m/h 22 %
14:00:00 light rain 14.704 14.704 14.704 82 3.42 m/h 8 %

Famous Cities (60)